createdAt,value
2022-12-31T00:00:22.075Z,100333.50
2022-12-31T00:02:49.212Z,100335.28
2022-12-31T00:05:16.328Z,100332.63
2022-12-31T00:10:09.675Z,100324.72
2022-12-31T00:12:36.689Z,100318.56
2022-12-31T00:15:03.901Z,100306.28
2022-12-31T00:17:30.922Z,100305.41
2022-12-31T00:19:57.932Z,100300.13
2022-12-31T00:22:25.042Z,100309.78
2022-12-31T00:24:52.004Z,100300.13
2022-12-31T00:27:19.129Z,100322.97
2022-12-31T00:29:46.104Z,100312.41
2022-12-31T00:32:13.317Z,100319.44
2022-12-31T00:34:40.287Z,100318.56
2022-12-31T00:37:07.266Z,100320.31
2022-12-31T00:39:34.269Z,100312.41
2022-12-31T00:42:01.437Z,100308.03
2022-12-31T00:44:28.568Z,100301.00
2022-12-31T00:46:55.497Z,100293.97
2022-12-31T00:49:22.516Z,100286.06
2022-12-31T00:51:49.600Z,100277.28
2022-12-31T00:54:16.698Z,100286.06
2022-12-31T00:56:43.758Z,100283.44
2022-12-31T00:59:10.787Z,100286.06
2022-12-31T01:01:40.585Z,100291.34
2022-12-31T01:04:18.134Z,100281.66
2022-12-31T01:06:46.263Z,100289.56
2022-12-31T01:09:16.289Z,100286.06
2022-12-31T01:11:43.605Z,100288.69
2022-12-31T01:14:20.942Z,100303.63
2022-12-31T01:16:53.237Z,100310.66
2022-12-31T01:19:27.007Z,100301.88
2022-12-31T01:21:55.732Z,100312.41
2022-12-31T01:24:23.343Z,100322.97
2022-12-31T01:26:51.379Z,100353.72
2022-12-31T01:29:18.706Z,100418.75
2022-12-31T01:31:45.719Z,100416.97
2022-12-31T01:34:12.922Z,100394.94
2022-12-31T01:36:40.126Z,100335.19
2022-12-31T01:39:09.038Z,100306.19
2022-12-31T01:41:44.295Z,100322.88
2022-12-31T01:44:14.074Z,100337.81
2022-12-31T01:46:47.283Z,100349.22
2022-12-31T01:49:40.750Z,100357.13
2022-12-31T01:52:14.260Z,100344.78
2022-12-31T01:54:48.529Z,100344.78
2022-12-31T01:57:16.885Z,100332.50
2022-12-31T01:59:45.340Z,100343.03
2022-12-31T02:02:15.135Z,100353.56
2022-12-31T02:04:42.419Z,100360.59
2022-12-31T02:07:11.370Z,100357.94
2022-12-31T02:09:42.093Z,100392.19
2022-12-31T02:12:10.075Z,100379.91
2022-12-31T02:14:48.303Z,100398.34
2022-12-31T02:18:01.641Z,100394.81
2022-12-31T02:20:54.082Z,100397.47
2022-12-31T02:23:54.782Z,100408.00
2022-12-31T02:27:21.248Z,100397.44
2022-12-31T02:30:14.291Z,100391.31
2022-12-31T02:33:14.852Z,100385.16
2022-12-31T02:35:49.411Z,100369.34
2022-12-31T02:38:24.630Z,100373.75
2022-12-31T02:40:56.638Z,100364.97
2022-12-31T02:43:25.104Z,100383.41
2022-12-31T02:46:38.280Z,100379.00
2022-12-31T02:49:30.968Z,100379.88
2022-12-31T02:52:21.327Z,100365.84
2022-12-31T02:55:07.030Z,100364.06
2022-12-31T02:58:00.312Z,100359.69
2022-12-31T03:00:49.340Z,100359.69
2022-12-31T03:03:17.695Z,100348.25
2022-12-31T03:05:46.811Z,100347.38
2022-12-31T03:08:25.921Z,100350.88
2022-12-31T03:10:53.219Z,100347.38
2022-12-31T03:13:20.219Z,100340.34
2022-12-31T03:15:47.192Z,100336.81
2022-12-31T03:18:39.505Z,100340.34
2022-12-31T03:21:32.078Z,100318.41
2022-12-31T03:24:17.857Z,100321.03
2022-12-31T03:26:44.918Z,100314.91
2022-12-31T03:29:11.923Z,100318.41
2022-12-31T03:31:38.911Z,100327.19
2022-12-31T03:34:06.066Z,100321.91
2022-12-31T03:36:33.015Z,100313.09
2022-12-31T03:38:59.952Z,100313.97
2022-12-31T03:41:26.952Z,100308.72
2022-12-31T03:43:53.931Z,100300.81
2022-12-31T03:46:21.088Z,100309.59
2022-12-31T03:48:48.087Z,100321.00
2022-12-31T03:51:15.616Z,100313.97
2022-12-31T03:53:42.600Z,100313.09
2022-12-31T03:56:09.578Z,100319.22
2022-12-31T03:58:36.525Z,100318.34
2022-12-31T04:01:03.633Z,100321.88
2022-12-31T04:03:30.704Z,100315.72
2022-12-31T04:05:57.674Z,100306.06
2022-12-31T04:08:25.215Z,100299.03
2022-12-31T04:10:52.232Z,100308.69
2022-12-31T04:13:19.257Z,100314.84
2022-12-31T04:15:49.082Z,100308.69
2022-12-31T04:18:16.222Z,100307.81
2022-12-31T04:20:43.202Z,100324.50
2022-12-31T04:23:10.331Z,100319.25
2022-12-31T04:25:37.278Z,100315.75
2022-12-31T04:28:04.472Z,100321.00
2022-12-31T04:30:31.499Z,100320.16
2022-12-31T04:32:58.475Z,100324.56
2022-12-31T04:35:25.421Z,100321.91
2022-12-31T04:37:52.466Z,100329.81
2022-12-31T04:40:19.802Z,100339.47
2022-12-31T04:42:46.820Z,100336.84
2022-12-31T04:45:13.884Z,100329.84
2022-12-31T04:47:40.884Z,100324.56
2022-12-31T04:50:08.241Z,100337.75
2022-12-31T04:52:42.160Z,100339.56
2022-12-31T04:55:41.033Z,100332.56
2022-12-31T04:58:08.065Z,100324.66
2022-12-31T05:00:35.129Z,100343.09
2022-12-31T05:03:02.181Z,100329.91
2022-12-31T05:05:30.032Z,100338.72
2022-12-31T05:07:57.009Z,100327.28
2022-12-31T05:10:24.272Z,100328.25
2022-12-31T05:12:51.301Z,100347.56
2022-12-31T05:15:18.289Z,100343.19
2022-12-31T05:17:45.261Z,100344.94
2022-12-31T05:20:12.223Z,100346.69
2022-12-31T05:22:39.281Z,100349.34
2022-12-31T05:25:06.907Z,100366.03
2022-12-31T05:27:34.237Z,100365.19
2022-12-31T05:30:01.276Z,100360.78
2022-12-31T05:32:28.352Z,100368.69
2022-12-31T05:34:55.442Z,100381.00
2022-12-31T05:37:22.483Z,100377.47
2022-12-31T05:39:49.634Z,100375.69
2022-12-31T05:42:16.709Z,100388.91
2022-12-31T05:44:43.783Z,100383.63
2022-12-31T05:47:11.021Z,100385.41
2022-12-31T05:49:38.089Z,100393.31
2022-12-31T05:52:05.331Z,100395.06
2022-12-31T05:54:32.649Z,100379.22
2022-12-31T05:56:59.796Z,100377.47
2022-12-31T05:59:26.970Z,100373.06
2022-12-31T06:01:54.013Z,100379.22
2022-12-31T06:04:21.050Z,100380.09
2022-12-31T06:06:48.075Z,100383.63
2022-12-31T06:09:17.326Z,100366.03
2022-12-31T06:11:45.270Z,100370.44
2022-12-31T06:14:12.945Z,100357.25
2022-12-31T06:16:40.516Z,100364.25
2022-12-31T06:19:07.728Z,100388.03
2022-12-31T06:21:35.060Z,100382.72
2022-12-31T06:24:02.168Z,100370.41
2022-12-31T06:26:29.149Z,100381.84
2022-12-31T06:28:56.132Z,100382.72
2022-12-31T06:31:23.106Z,100377.44
2022-12-31T06:33:50.137Z,100395.03
2022-12-31T06:36:17.473Z,100373.91
2022-12-31T06:38:44.777Z,100384.50
2022-12-31T06:41:15.107Z,100402.97
2022-12-31T06:43:42.926Z,100401.19
2022-12-31T06:46:13.610Z,100418.78
2022-12-31T06:48:42.927Z,100386.25
2022-12-31T06:51:18.085Z,100393.25
2022-12-31T06:53:50.822Z,100378.31
2022-12-31T06:56:31.334Z,100383.59
2022-12-31T06:59:00.806Z,100384.47
2022-12-31T07:01:36.566Z,100374.78
2022-12-31T07:04:41.966Z,100373.03
2022-12-31T07:07:35.028Z,100373.00
2022-12-31T07:10:11.950Z,100375.66
2022-12-31T07:13:28.014Z,100374.78
2022-12-31T07:16:06.911Z,100374.78
2022-12-31T07:19:05.118Z,100373.88
2022-12-31T07:21:41.673Z,100376.53
2022-12-31T07:24:11.755Z,100370.38
2022-12-31T07:26:57.116Z,100373.88
2022-12-31T07:29:54.255Z,100374.78
2022-12-31T07:32:51.682Z,100378.31
2022-12-31T07:35:48.633Z,100372.13
2022-12-31T07:38:21.237Z,100370.34
2022-12-31T07:41:28.258Z,100382.69
2022-12-31T07:44:11.031Z,100380.91
2022-12-31T07:46:55.708Z,100382.69
2022-12-31T07:49:24.858Z,100395.00
2022-12-31T07:51:53.000Z,100402.06
2022-12-31T07:54:20.651Z,100423.16
2022-12-31T07:56:50.458Z,100415.25
2022-12-31T07:59:47.773Z,100433.72
2022-12-31T08:02:20.780Z,100433.75
2022-12-31T08:05:20.428Z,100450.47
2022-12-31T08:08:16.970Z,100462.78
2022-12-31T08:11:10.360Z,100489.19
2022-12-31T08:13:39.108Z,100480.38
2022-12-31T08:16:12.369Z,100495.38
2022-12-31T08:18:39.953Z,100491.84
2022-12-31T08:21:38.652Z,100502.41
2022-12-31T08:24:54.502Z,100507.69
2022-12-31T08:28:07.700Z,100528.84
2022-12-31T08:30:55.509Z,100523.53
2022-12-31T08:33:43.189Z,100539.41
2022-12-31T08:36:53.536Z,100535.00
2022-12-31T08:39:32.576Z,100536.72
2022-12-31T08:42:03.415Z,100533.22
2022-12-31T08:45:05.671Z,100540.28
2022-12-31T08:47:41.295Z,100547.34
2022-12-31T08:50:16.605Z,100542.94
2022-12-31T08:52:44.372Z,100562.31
2022-12-31T08:55:18.937Z,100561.41
2022-12-31T08:58:19.058Z,100571.09
2022-12-31T09:00:49.358Z,100580.78
2022-12-31T09:03:24.091Z,100591.34
2022-12-31T09:06:26.471Z,100589.59
2022-12-31T09:09:50.364Z,100585.19
2022-12-31T09:12:46.651Z,100616.88
2022-12-31T09:15:25.113Z,100633.63
2022-12-31T09:17:52.492Z,100623.91
2022-12-31T09:20:43.763Z,100629.19
2022-12-31T09:23:13.250Z,100628.31
2022-12-31T09:26:07.712Z,100625.66
2022-12-31T09:29:10.471Z,100638.88
2022-12-31T09:31:54.128Z,100635.34
2022-12-31T09:34:35.802Z,100644.16
2022-12-31T09:37:24.846Z,100645.03
2022-12-31T09:39:53.325Z,100641.50
2022-12-31T09:42:50.677Z,100646.81
2022-12-31T09:45:42.619Z,100644.19
2022-12-31T09:48:49.282Z,100653.00
2022-12-31T09:52:09.595Z,100646.81
2022-12-31T09:55:20.968Z,100645.94
2022-12-31T09:58:18.374Z,100665.31
2022-12-31T10:01:02.227Z,100650.34
2022-12-31T10:03:46.694Z,100649.47
2022-12-31T10:06:53.512Z,100659.16
2022-12-31T10:09:43.865Z,100652.97
2022-12-31T10:12:22.956Z,100646.81
2022-12-31T10:15:44.302Z,100650.34
2022-12-31T10:18:58.598Z,100631.84
2022-12-31T10:21:36.629Z,100608.06
2022-12-31T10:24:45.939Z,100621.28
2022-12-31T10:27:42.178Z,100621.28
2022-12-31T10:30:13.540Z,100626.56
2022-12-31T10:32:58.877Z,100618.63
2022-12-31T10:35:48.998Z,100616.88
2022-12-31T10:38:35.939Z,100623.03
2022-12-31T10:41:49.670Z,100618.63
2022-12-31T10:45:12.111Z,100631.84
2022-12-31T10:48:12.253Z,100633.59
2022-12-31T10:50:57.239Z,100631.84
2022-12-31T10:54:25.634Z,100644.19
2022-12-31T10:58:00.277Z,100631.84
2022-12-31T11:00:46.059Z,100633.59
2022-12-31T11:03:37.087Z,100638.88
2022-12-31T11:06:49.718Z,100640.66
2022-12-31T11:09:45.052Z,100645.03
2022-12-31T11:12:57.518Z,100645.03
2022-12-31T11:15:49.951Z,100644.16
2022-12-31T11:18:59.513Z,100644.16
2022-12-31T11:21:58.759Z,100656.50
2022-12-31T11:24:58.177Z,100648.59
2022-12-31T11:28:07.760Z,100661.81
2022-12-31T11:30:59.341Z,100661.78
2022-12-31T11:33:43.024Z,100645.03
2022-12-31T11:36:34.940Z,100655.63
2022-12-31T11:39:40.073Z,100664.44
2022-12-31T11:42:44.142Z,100662.69
2022-12-31T11:45:27.881Z,100647.69
2022-12-31T11:48:34.380Z,100646.81
2022-12-31T11:51:34.587Z,100653.00
2022-12-31T11:54:57.067Z,100655.63
2022-12-31T11:57:35.604Z,100639.78
2022-12-31T12:00:20.483Z,100645.06
2022-12-31T12:02:50.420Z,100645.06
2022-12-31T12:05:21.798Z,100635.38
2022-12-31T12:07:50.816Z,100649.47
2022-12-31T12:10:36.533Z,100642.44
2022-12-31T12:13:25.262Z,100656.53
2022-12-31T12:16:06.374Z,100660.94
2022-12-31T12:19:04.100Z,100652.13
2022-12-31T12:21:31.776Z,100650.38
2022-12-31T12:24:18.061Z,100647.72
2022-12-31T12:26:45.597Z,100634.50
2022-12-31T12:29:19.198Z,100635.38
2022-12-31T12:31:57.579Z,100628.34
2022-12-31T12:34:29.629Z,100630.97
2022-12-31T12:36:57.131Z,100639.78
2022-12-31T12:39:31.602Z,100627.44
2022-12-31T12:42:15.080Z,100617.75
2022-12-31T12:44:42.794Z,100627.44
2022-12-31T12:47:17.391Z,100623.94
2022-12-31T12:49:54.152Z,100633.59
2022-12-31T12:52:56.365Z,100610.69
2022-12-31T12:55:35.285Z,100608.06
2022-12-31T12:58:19.362Z,100615.09
2022-12-31T13:00:56.927Z,100619.50
2022-12-31T13:04:33.458Z,100601.00
2022-12-31T14:01:53.431Z,100574.53
2022-12-31T14:04:45.079Z,100562.19
2022-12-31T14:07:34.744Z,100565.72
2022-12-31T14:10:16.161Z,100571.88
2022-12-31T14:13:44.196Z,100573.66
2022-12-31T14:16:32.219Z,100581.56
2022-12-31T14:19:34.195Z,100574.53
2022-12-31T14:22:21.702Z,100576.28
2022-12-31T14:24:51.187Z,100573.63
2022-12-31T14:27:32.181Z,100593.03
2022-12-31T14:30:15.631Z,100574.53
2022-12-31T14:33:06.868Z,100585.97
2022-12-31T14:35:56.688Z,100600.97
2022-12-31T14:39:00.814Z,100578.06
2022-12-31T14:41:56.761Z,100589.50
2022-12-31T14:44:54.904Z,100581.53
2022-12-31T14:47:40.982Z,100588.59
2022-12-31T14:50:20.820Z,100585.06
2022-12-31T14:53:17.529Z,100584.19
2022-12-31T14:55:44.596Z,100583.31
2022-12-31T14:58:29.729Z,100584.19
2022-12-31T15:01:03.342Z,100575.41
2022-12-31T15:03:45.471Z,100581.56
2022-12-31T15:06:32.856Z,100572.75
2022-12-31T15:09:20.996Z,100571.84
2022-12-31T15:12:27.868Z,100566.56
2022-12-31T15:15:42.443Z,100556.84
2022-12-31T15:18:21.946Z,100556.84
2022-12-31T15:20:54.891Z,100557.72
2022-12-31T15:23:39.578Z,100555.09
2022-12-31T15:26:08.519Z,100557.72
2022-12-31T15:28:39.531Z,100565.66
2022-12-31T15:31:20.694Z,100570.94
2022-12-31T15:34:29.532Z,100568.28
2022-12-31T15:37:01.296Z,100560.34
2022-12-31T15:39:31.121Z,100581.53
2022-12-31T15:44:55.377Z,100570.97
2022-12-31T15:47:39.720Z,100558.63
2022-12-31T15:50:20.518Z,100568.31
2022-12-31T15:53:02.741Z,100558.63
2022-12-31T15:55:41.697Z,100548.03
2022-12-31T15:58:18.363Z,100548.03
2022-12-31T16:01:10.332Z,100543.66
2022-12-31T16:03:42.253Z,100550.72
2022-12-31T16:06:13.952Z,100533.06
2022-12-31T16:08:46.185Z,100528.66
2022-12-31T16:11:13.582Z,100556.88
2022-12-31T16:13:48.697Z,100556.00
2022-12-31T16:16:31.631Z,100545.44
2022-12-31T16:19:00.021Z,100532.22
2022-12-31T16:21:36.364Z,100532.22
2022-12-31T16:24:32.229Z,100531.34
2022-12-31T16:27:13.809Z,100540.16
2022-12-31T16:29:55.535Z,100534.88
2022-12-31T16:32:23.245Z,100526.94
2022-12-31T16:34:50.281Z,100530.47
2022-12-31T16:37:20.886Z,100539.28
2022-12-31T16:40:08.817Z,100540.16
2022-12-31T16:42:44.246Z,100526.94
2022-12-31T16:45:36.817Z,100523.44
2022-12-31T16:48:18.631Z,100517.25
2022-12-31T16:50:55.907Z,100506.69
2022-12-31T16:53:27.766Z,100515.50
2022-12-31T16:56:06.950Z,100516.38
2022-12-31T16:58:40.082Z,100514.63
2022-12-31T17:01:20.959Z,100519.03
2022-12-31T17:03:55.357Z,100515.50
2022-12-31T17:06:23.331Z,100508.41
2022-12-31T17:08:56.280Z,100508.44
2022-12-31T17:11:39.174Z,100501.38
2022-12-31T17:14:06.263Z,100482.00
2022-12-31T17:16:59.552Z,100480.22
2022-12-31T17:19:45.900Z,100480.25
2022-12-31T17:22:34.217Z,100488.19
2022-12-31T17:25:27.022Z,100487.31
2022-12-31T17:28:03.114Z,100482.91
2022-12-31T17:30:29.990Z,100475.84
2022-12-31T17:33:08.150Z,100487.28
2022-12-31T17:35:42.407Z,100492.59
2022-12-31T17:38:21.282Z,100493.47
2022-12-31T17:40:55.713Z,100496.13
2022-12-31T17:43:24.637Z,100509.31
2022-12-31T17:45:54.918Z,100511.97
2022-12-31T17:48:24.712Z,100512.00
2022-12-31T17:50:58.333Z,100498.78
2022-12-31T17:53:26.134Z,100501.41
2022-12-31T17:56:00.102Z,100517.25
2022-12-31T17:58:51.009Z,100505.78
2022-12-31T18:01:22.370Z,100496.13
2022-12-31T18:03:50.185Z,100489.94
2022-12-31T18:06:19.754Z,100487.28
2022-12-31T18:08:47.108Z,100497.00
2022-12-31T18:11:24.637Z,100495.22
2022-12-31T18:13:52.947Z,100480.25
2022-12-31T18:16:19.960Z,100498.75
2022-12-31T18:18:46.937Z,100500.50
2022-12-31T18:21:36.751Z,100489.97
2022-12-31T18:26:33.090Z,100496.09
2022-12-31T18:29:10.637Z,100506.66
2022-12-31T18:31:37.863Z,100516.31
2022-12-31T18:34:04.938Z,100524.28
2022-12-31T18:36:32.324Z,100517.25
2022-12-31T18:38:59.344Z,100522.53
2022-12-31T18:41:34.324Z,100516.38
2022-12-31T18:44:01.450Z,100519.00
2022-12-31T18:46:29.352Z,100514.63
2022-12-31T18:48:56.500Z,100519.91
2022-12-31T18:51:31.494Z,100516.38
2022-12-31T18:54:00.755Z,100530.50
2022-12-31T18:56:28.316Z,100535.78
2022-12-31T18:58:55.928Z,100537.53
2022-12-31T19:01:43.320Z,100544.59
2022-12-31T19:04:18.712Z,100531.38
2022-12-31T19:06:49.492Z,100536.66
2022-12-31T19:09:43.515Z,100530.50
2022-12-31T19:12:05.102Z,100544.56
2022-12-31T19:14:32.155Z,100536.66
2022-12-31T19:19:26.215Z,100550.75
2022-12-31T19:21:53.187Z,100550.75
2022-12-31T19:24:24.512Z,100543.69
2022-12-31T19:26:51.494Z,100558.66
2022-12-31T19:29:27.505Z,100542.84
2022-12-31T19:31:55.171Z,100563.09
2022-12-31T19:34:22.282Z,100561.34
2022-12-31T19:36:49.602Z,100556.03
2022-12-31T19:39:20.774Z,100556.91
2022-12-31T19:41:53.041Z,100546.34
2022-12-31T19:44:25.304Z,100551.63
2022-12-31T19:46:52.368Z,100558.66
2022-12-31T19:49:19.310Z,100567.47
2022-12-31T19:51:46.312Z,100563.09
2022-12-31T19:54:13.897Z,100559.56
2022-12-31T19:56:41.483Z,100554.25
2022-12-31T19:59:10.804Z,100565.72
2022-12-31T20:01:38.817Z,100559.53
2022-12-31T20:04:06.045Z,100565.72
2022-12-31T20:06:33.132Z,100566.63
2022-12-31T20:09:00.217Z,100566.63
2022-12-31T20:11:27.406Z,100561.31
2022-12-31T20:13:54.512Z,100571.91
2022-12-31T20:16:26.718Z,100581.59
2022-12-31T20:18:54.112Z,100560.44
2022-12-31T20:21:27.864Z,100571.88
2022-12-31T20:23:55.613Z,100586.84
2022-12-31T20:26:24.658Z,100568.38
2022-12-31T20:28:52.700Z,100572.78
2022-12-31T20:31:24.988Z,100572.75
2022-12-31T20:33:54.284Z,100581.56
2022-12-31T20:36:22.501Z,100570.13
2022-12-31T20:38:50.009Z,100567.47
2022-12-31T20:41:21.339Z,100583.34
2022-12-31T20:43:49.139Z,100578.06
2022-12-31T20:46:20.273Z,100585.13
2022-12-31T20:48:49.734Z,100580.72
2022-12-31T20:51:21.150Z,100582.47
2022-12-31T20:53:57.531Z,100586.00
2022-12-31T20:56:28.331Z,100583.34
2022-12-31T20:58:55.514Z,100591.28
2022-12-31T21:01:23.256Z,100583.34
2022-12-31T21:04:07.017Z,100577.19
2022-12-31T21:06:36.160Z,100586.88
2022-12-31T21:09:06.151Z,100580.69
2022-12-31T21:11:52.411Z,100590.41
2022-12-31T21:14:19.779Z,100582.47
2022-12-31T21:16:47.288Z,100592.16
2022-12-31T21:19:14.474Z,100599.22
2022-12-31T21:21:41.707Z,100579.78
2022-12-31T21:24:08.980Z,100583.34
2022-12-31T21:26:36.015Z,100602.72
2022-12-31T21:29:03.431Z,100590.38
2022-12-31T21:31:30.459Z,100601.84
2022-12-31T21:33:57.657Z,100601.84
2022-12-31T21:36:24.638Z,100598.31
2022-12-31T21:38:51.685Z,100593.91
2022-12-31T21:41:37.365Z,100600.09
2022-12-31T21:44:04.492Z,100602.72
2022-12-31T21:46:31.524Z,100607.13
2022-12-31T21:49:00.351Z,100611.53
2022-12-31T21:51:28.613Z,100606.25
2022-12-31T21:53:55.774Z,100599.22
2022-12-31T21:56:23.039Z,100593.94
2022-12-31T21:59:17.025Z,100598.31
2022-12-31T22:02:02.608Z,100602.72
2022-12-31T22:05:02.023Z,100612.41
2022-12-31T22:07:16.775Z,100600.97
2022-12-31T22:09:43.891Z,100608.91
2022-12-31T22:12:10.872Z,100611.53
2022-12-31T22:14:37.807Z,100609.78
2022-12-31T22:17:04.917Z,100600.94
2022-12-31T22:19:33.616Z,100597.44
2022-12-31T22:22:06.397Z,100615.06
2022-12-31T22:24:33.379Z,100600.97
2022-12-31T22:27:00.500Z,100608.00
2022-12-31T22:29:47.573Z,100607.13
2022-12-31T22:32:14.550Z,100609.78
2022-12-31T22:34:41.499Z,100626.50
2022-12-31T22:37:27.478Z,100637.97
2022-12-31T22:39:55.631Z,100625.66
2022-12-31T22:42:22.669Z,100630.06
2022-12-31T22:44:49.824Z,100647.66
2022-12-31T22:47:16.849Z,100646.78
2022-12-31T22:49:43.875Z,100631.81
2022-12-31T22:52:10.855Z,100641.50
2022-12-31T22:54:37.811Z,100652.94
2022-12-31T22:57:05.008Z,100660.00
2022-12-31T22:59:31.982Z,100652.94
2022-12-31T23:01:58.949Z,100642.38
2022-12-31T23:04:26.038Z,100650.31
2022-12-31T23:06:53.108Z,100646.78
2022-12-31T23:09:38.814Z,100651.19
2022-12-31T23:12:08.724Z,100657.38
2022-12-31T23:14:55.158Z,100666.19
2022-12-31T23:17:44.813Z,100660.00
2022-12-31T23:20:35.937Z,100656.50
2022-12-31T23:23:09.954Z,100645.91
2022-12-31T23:25:48.914Z,100657.38
2022-12-31T23:28:23.626Z,100661.75
2022-12-31T23:30:51.648Z,100673.22
2022-12-31T23:33:25.391Z,100675.88
2022-12-31T23:36:05.902Z,100681.16
2022-12-31T23:38:32.886Z,100673.22
2022-12-31T23:40:59.817Z,100657.38
2022-12-31T23:43:27.177Z,100661.78
2022-12-31T23:45:56.994Z,100682.94
2022-12-31T23:48:23.985Z,100686.47
2022-12-31T23:50:53.743Z,100682.94
2022-12-31T23:53:23.130Z,100694.41
2022-12-31T23:55:51.661Z,100693.53
2022-12-31T23:58:18.655Z,100689.13
